Time;durP1;ratioP1;P1;durP2;ratioP2;P2;SDS_P1;SDS_P2;PMS_P1;PMS_P2;Temp;Humidity;BMP_temperature;BMP_pressure;BME280_temperature;BME280_humidity;BME280_pressure;Samples;Min_cycle;Max_cycle;Signal;HPM_P1;HPM_P2
2022/06/01 00:01:53;;;;;;;3.47;2.57;;;13.80;99.90;;;;;;5040271;28;20215;-41
2022/06/01 00:04:20;;;;;;;2.50;2.30;;;13.60;99.90;;;;;;5039999;28;20185;-40
2022/06/01 00:06:46;;;;;;;3.13;2.33;;;13.50;99.90;;;;;;5074474;28;20198;-40
2022/06/01 00:09:12;;;;;;;3.07;2.37;;;13.50;99.90;;;;;;5056739;28;20191;-38
2022/06/01 00:11:39;;;;;;;4.63;2.97;;;13.60;99.90;;;;;;5040025;28;20216;-41
2022/06/01 00:14:05;;;;;;;3.27;2.50;;;13.60;99.90;;;;;;5056331;28;20181;-41
2022/06/01 00:16:31;;;;;;;4.50;2.60;;;13.60;99.90;;;;;;5056876;28;20315;-40
2022/06/01 00:18:57;;;;;;;2.70;2.50;;;13.50;99.90;;;;;;5056282;28;20176;-40
2022/06/01 00:21:23;;;;;;;3.77;2.80;;;13.50;99.90;;;;;;5056278;28;20527;-41
2022/06/01 00:23:50;;;;;;;5.67;2.80;;;13.40;99.90;;;;;;5056122;28;20188;-41
2022/06/01 00:26:16;;;;;;;3.13;2.50;;;13.50;99.90;;;;;;5039783;28;20194;-39
2022/06/01 00:28:42;;;;;;;4.23;2.80;;;13.60;99.90;;;;;;5039797;28;20184;-41
2022/06/01 00:31:11;;;;;;;2.70;2.50;;;13.70;99.90;;;;;;5074310;28;20179;-40
2022/06/01 00:33:37;;;;;;;3.10;2.80;;;13.80;99.90;;;;;;5039841;28;20185;-39
2022/06/01 00:36:05;;;;;;;4.70;2.70;;;13.80;99.90;;;;;;5039299;28;20203;-39
2022/06/01 00:38:31;;;;;;;2.97;2.40;;;13.80;99.90;;;;;;5056126;28;20183;-39
2022/06/01 00:40:57;;;;;;;3.03;2.50;;;13.70;99.90;;;;;;5039597;28;20176;-41
2022/06/01 00:43:39;;;;;;;3.87;2.53;;;13.70;99.90;;;;;;5039609;28;20177;-40
2022/06/01 00:46:05;;;;;;;5.20;2.73;;;13.70;99.90;;;;;;5039347;28;20184;-40
2022/06/01 00:48:33;;;;;;;2.73;2.50;;;13.70;99.90;;;;;;5039123;28;20183;-41
2022/06/01 00:50:59;;;;;;;3.73;2.80;;;13.70;99.90;;;;;;5055795;28;20176;-40
2022/06/01 00:53:33;;;;;;;3.10;2.80;;;13.80;99.90;;;;;;5073836;28;20173;-40
2022/06/01 00:56:11;;;;;;;3.43;2.53;;;13.80;99.90;;;;;;5055626;28;20570;-38
2022/06/01 00:58:43;;;;;;;3.00;2.70;;;13.80;99.90;;;;;;5039494;28;20186;-40
2022/06/01 01:01:17;;;;;;;2.70;2.50;;;13.80;99.90;;;;;;5073570;28;20175;-41
2022/06/01 01:03:45;;;;;;;2.50;2.27;;;13.80;99.90;;;;;;5038957;28;20193;-40
2022/06/01 01:06:17;;;;;;;2.40;2.20;;;13.80;99.90;;;;;;5038801;28;20270;-40
2022/06/01 01:08:44;;;;;;;3.57;2.80;;;13.80;99.90;;;;;;5055742;28;20204;-40
2022/06/01 01:11:11;;;;;;;4.83;2.97;;;13.80;99.90;;;;;;5072439;28;20167;-41
2022/06/01 01:13:41;;;;;;;3.13;2.60;;;13.80;99.90;;;;;;5073423;28;20172;-41
2022/06/01 01:16:07;;;;;;;4.37;2.50;;;13.80;99.90;;;;;;5055212;28;20189;-40
2022/06/01 01:18:36;;;;;;;3.50;2.50;;;13.80;99.90;;;;;;5055345;28;20184;-41
2022/06/01 01:21:07;;;;;;;3.40;2.27;;;13.90;99.90;;;;;;5055416;28;20188;-40
2022/06/01 01:23:49;;;;;;;3.47;2.93;;;13.80;99.90;;;;;;5038635;28;20187;-41
2022/06/01 01:26:15;;;;;;;2.80;2.60;;;13.70;99.90;;;;;;5055446;28;20280;-40
2022/06/01 01:28:42;;;;;;;2.73;2.37;;;13.60;99.90;;;;;;5055323;28;20182;-37
2022/06/01 01:31:20;;;;;;;4.40;2.70;;;13.60;99.90;;;;;;5038859;28;20681;-39
2022/06/01 01:33:48;;;;;;;4.00;2.60;;;13.50;99.90;;;;;;5054968;28;20618;-39
2022/06/01 01:36:16;;;;;;;4.13;2.53;;;13.40;99.90;;;;;;5038511;28;20238;-41
2022/06/01 01:39:09;;;;;;;2.63;2.40;;;13.40;99.90;;;;;;5055026;28;20191;-40
2022/06/01 01:41:47;;;;;;;3.07;2.43;;;13.40;99.90;;;;;;5055147;28;20184;-40
2022/06/01 01:44:22;;;;;;;2.97;2.40;;;13.30;99.90;;;;;;5054988;28;20619;-40
2022/06/01 01:46:49;;;;;;;3.27;2.50;;;13.30;99.90;;;;;;5054748;28;20195;-36
2022/06/01 01:49:39;;;;;;;2.90;2.60;;;13.30;99.90;;;;;;5038447;28;20267;-38
2022/06/01 01:52:14;;;;;;;2.60;2.40;;;13.30;99.90;;;;;;5054391;28;20221;-40
2022/06/01 01:55:02;;;;;;;2.93;2.53;;;13.20;99.90;;;;;;5037853;28;20188;-40
2022/06/01 01:57:54;;;;;;;3.97;2.40;;;13.10;99.90;;;;;;5037864;28;20202;-40
2022/06/01 02:00:28;;;;;;;3.47;2.63;;;13.10;99.90;;;;;;4998066;28;20210;-41
2022/06/01 02:03:18;;;;;;;4.23;2.60;;;13.00;99.90;;;;;;5054814;28;20176;-39
2022/06/01 02:06:04;;;;;;;2.60;2.40;;;13.00;99.90;;;;;;5054107;28;20546;-39
2022/06/01 02:08:48;;;;;;;3.73;2.90;;;13.00;99.90;;;;;;5054557;28;20200;-35
2022/06/01 02:14:23;;;;;;;3.33;2.63;;;13.00;99.90;;;;;;5072094;28;20214;-40
2022/06/01 02:17:20;;;;;;;3.90;2.80;;;12.90;99.90;;;;;;5054394;28;20737;-40
2022/06/01 02:19:57;;;;;;;3.90;2.57;;;12.80;99.90;;;;;;5054447;28;20250;-40
2022/06/01 02:22:24;;;;;;;3.37;2.63;;;12.80;99.90;;;;;;5071891;28;20176;-39
2022/06/01 02:24:50;;;;;;;2.60;2.40;;;12.80;99.90;;;;;;5053957;28;20219;-40
2022/06/01 02:27:17;;;;;;;3.27;2.80;;;12.80;99.90;;;;;;5054194;28;20201;-40
2022/06/01 02:29:49;;;;;;;4.13;3.17;;;12.70;99.90;;;;;;5054217;28;20184;-40
2022/06/01 02:32:17;;;;;;;5.70;3.07;;;12.40;99.90;;;;;;5037620;28;20219;-40
2022/06/01 02:34:44;;;;;;;3.57;3.03;;;12.30;99.90;;;;;;5053751;28;20210;-41
2022/06/01 02:37:14;;;;;;;4.30;3.00;;;12.20;99.90;;;;;;5053792;28;20200;-37
2022/06/01 02:39:43;;;;;;;3.57;2.93;;;12.10;99.90;;;;;;5053826;28;20180;-40
2022/06/01 02:42:26;;;;;;;3.20;2.70;;;12.00;99.90;;;;;;5054009;28;20257;-40
2022/06/01 02:45:00;;;;;;;3.73;3.13;;;12.00;99.90;;;;;;5071425;28;20174;-39
2022/06/01 02:47:30;;;;;;;3.73;3.03;;;11.90;99.90;;;;;;5053663;28;20222;-40
2022/06/01 02:49:57;;;;;;;3.10;2.80;;;11.80;99.90;;;;;;5053892;28;20248;-40
2022/06/01 02:52:23;;;;;;;5.20;3.23;;;11.80;99.90;;;;;;5037164;28;20211;-40
2022/06/01 02:54:49;;;;;;;5.20;3.37;;;11.70;99.90;;;;;;5053215;28;20185;-40
2022/06/01 02:57:15;;;;;;;4.73;3.00;;;11.80;99.90;;;;;;5053629;28;20229;-40
2022/06/01 02:59:42;;;;;;;3.50;3.03;;;11.70;99.90;;;;;;5036707;28;20213;-40
2022/06/01 03:02:11;;;;;;;5.33;3.03;;;11.50;99.90;;;;;;5071565;28;20173;-40
2022/06/01 03:04:39;;;;;;;3.97;3.20;;;11.30;99.90;;;;;;5036745;28;20252;-41
2022/06/01 03:07:06;;;;;;;5.67;3.33;;;11.10;99.90;;;;;;5036525;28;20296;-40
2022/06/01 03:09:32;;;;;;;4.53;3.37;;;11.10;99.90;;;;;;5053439;28;20187;-38
2022/06/01 03:11:59;;;;;;;3.47;3.17;;;11.00;99.90;;;;;;5036867;28;20212;-40
2022/06/01 03:14:26;;;;;;;3.50;3.20;;;11.00;99.90;;;;;;5053015;28;20206;-40
2022/06/01 03:16:52;;;;;;;4.37;2.90;;;11.00;99.90;;;;;;5071140;28;20653;-38
2022/06/01 03:19:18;;;;;;;3.67;3.33;;;11.00;99.90;;;;;;5053326;28;20185;-41
2022/06/01 03:21:44;;;;;;;3.87;3.40;;;11.00;99.90;;;;;;5053351;28;20181;-40
2022/06/01 03:24:10;;;;;;;4.83;3.27;;;11.10;99.90;;;;;;5053097;28;20185;-42
2022/06/01 03:26:36;;;;;;;3.57;3.03;;;11.10;99.90;;;;;;5036424;28;20696;-39
2022/06/01 03:29:05;;;;;;;3.13;2.70;;;11.10;99.90;;;;;;5053089;28;20266;-40
2022/06/01 03:31:32;;;;;;;4.33;3.20;;;11.20;99.90;;;;;;5069640;28;20205;-40
2022/06/01 03:33:58;;;;;;;7.17;3.23;;;11.30;99.90;;;;;;5035902;28;20182;-40
2022/06/01 03:36:24;;;;;;;3.60;3.30;;;11.30;99.90;;;;;;5036525;28;20200;-40
2022/06/01 03:38:50;;;;;;;3.80;3.03;;;11.30;99.90;;;;;;5036591;28;20200;-40
2022/06/01 03:41:16;;;;;;;3.77;3.23;;;11.40;99.90;;;;;;5036434;28;20177;-40
2022/06/01 03:46:26;;;;;;;5.27;3.67;;;11.10;99.90;;;;;;5070913;28;20196;-41
2022/06/01 03:48:52;;;;;;;4.10;3.53;;;10.90;99.90;;;;;;5036417;28;20170;-39
2022/06/01 03:51:18;;;;;;;3.67;3.33;;;10.80;99.90;;;;;;5036299;28;20173;-40
2022/06/01 03:53:44;;;;;;;4.33;3.93;;;10.70;99.90;;;;;;5036045;28;20185;-35
2022/06/01 03:56:10;;;;;;;4.83;3.60;;;10.70;99.90;;;;;;5035647;28;20189;-40
2022/06/01 03:58:36;;;;;;;4.17;3.60;;;10.70;99.90;;;;;;5052453;28;20188;-39
2022/06/01 04:01:06;;;;;;;4.10;3.70;;;10.70;99.90;;;;;;5051957;28;20177;-40
2022/06/01 04:03:32;;;;;;;4.77;3.77;;;10.70;99.90;;;;;;5036170;28;20204;-39
2022/06/01 04:05:58;;;;;;;7.57;3.90;;;10.70;99.90;;;;;;5070591;28;20197;-40
2022/06/01 04:08:25;;;;;;;6.30;4.23;;;10.70;99.90;;;;;;5070473;28;20197;-40
2022/06/01 04:10:51;;;;;;;4.13;3.77;;;10.80;99.90;;;;;;5052492;28;20554;-40
2022/06/01 04:13:17;;;;;;;4.33;3.43;;;10.90;99.90;;;;;;5036036;28;20201;-40
2022/06/01 04:15:43;;;;;;;4.43;3.73;;;11.00;99.90;;;;;;5035883;28;20615;-39
2022/06/01 04:18:09;;;;;;;5.67;4.03;;;11.00;99.90;;;;;;5036005;28;20278;-40
2022/06/01 04:20:35;;;;;;;5.93;3.83;;;11.10;99.90;;;;;;5070594;28;20182;-40
2022/06/01 04:23:02;;;;;;;6.27;4.20;;;11.10;99.90;;;;;;5035707;28;20189;-40
2022/06/01 04:25:29;;;;;;;6.13;4.50;;;11.00;99.90;;;;;;5070160;28;20268;-38
2022/06/01 04:27:55;;;;;;;4.97;4.30;;;10.90;99.90;;;;;;5036081;28;20235;-37
2022/06/01 04:30:21;;;;;;;5.47;4.10;;;10.90;99.90;;;;;;5035910;28;20183;-40
2022/06/01 04:32:50;;;;;;;4.33;3.60;;;10.90;99.90;;;;;;5070356;28;20201;-40
2022/06/01 04:35:18;;;;;;;5.07;4.00;;;10.90;99.90;;;;;;5068764;28;20544;-40
2022/06/01 04:37:44;;;;;;;4.47;3.90;;;11.00;99.90;;;;;;5068721;28;20228;-40
2022/06/01 04:40:12;;;;;;;4.83;4.03;;;11.00;99.90;;;;;;5052243;28;20648;-40
2022/06/01 04:42:39;;;;;;;5.77;4.40;;;11.10;99.90;;;;;;5070432;28;20184;-40
2022/06/01 04:45:06;;;;;;;6.43;4.27;;;11.30;99.90;;;;;;5036144;28;20230;-38
2022/06/01 04:47:32;;;;;;;4.27;3.87;;;11.40;99.90;;;;;;5055847;28;20208;-39
2022/06/01 04:49:58;;;;;;;6.93;5.03;;;11.40;99.90;;;;;;5056224;28;20185;-39
2022/06/01 04:52:24;;;;;;;5.93;4.37;;;11.50;99.90;;;;;;5055942;28;20209;-40
2022/06/01 04:54:50;;;;;;;4.53;4.03;;;11.60;99.90;;;;;;5035815;28;20200;-40
2022/06/01 04:57:16;;;;;;;5.10;4.03;;;11.70;99.90;;;;;;5044125;28;20201;-41
2022/06/01 04:59:42;;;;;;;5.03;4.17;;;11.70;99.90;;;;;;5044916;28;20184;-37
2022/06/01 05:02:08;;;;;;;7.17;4.33;;;11.80;99.90;;;;;;5022680;28;20178;-40
2022/06/01 05:04:35;;;;;;;6.30;4.13;;;11.90;99.90;;;;;;5043282;28;20196;-38
2022/06/01 05:07:02;;;;;;;7.90;4.77;;;11.90;99.90;;;;;;5063965;28;20193;-40
2022/06/01 05:09:28;;;;;;;4.63;3.77;;;11.90;99.90;;;;;;5047021;28;20191;-41
2022/06/01 05:11:56;;;;;;;5.87;4.20;;;12.10;99.90;;;;;;5047466;28;20217;-40
2022/06/01 05:14:22;;;;;;;4.00;3.70;;;12.20;99.90;;;;;;5045697;28;20184;-40
2022/06/01 05:16:47;;;;;;;6.67;4.00;;;12.30;99.90;;;;;;5043894;28;20566;-41
2022/06/01 05:19:14;;;;;;;6.60;4.23;;;12.50;99.90;;;;;;5045264;28;20331;-40
2022/06/01 05:21:40;;;;;;;5.03;4.43;;;12.60;99.90;;;;;;5045463;28;20182;-39
2022/06/01 05:24:06;;;;;;;7.90;4.63;;;12.70;99.90;;;;;;5037910;28;20206;-39
2022/06/01 05:26:32;;;;;;;5.17;4.00;;;12.80;99.90;;;;;;5049911;28;20199;-39
2022/06/01 05:28:58;;;;;;;3.40;3.10;;;12.90;99.90;;;;;;5055289;28;20188;-40
2022/06/01 05:31:24;;;;;;;3.80;3.23;;;13.00;99.90;;;;;;5073077;28;20176;-40
2022/06/01 05:33:50;;;;;;;3.93;3.53;;;13.20;99.90;;;;;;5054764;28;20178;-40
2022/06/01 05:36:17;;;;;;;5.43;3.10;;;13.30;99.90;;;;;;5054341;28;20282;-40
2022/06/01 05:38:46;;;;;;;5.17;3.53;;;13.50;99.90;;;;;;5055483;28;20189;-35
2022/06/01 05:41:12;;;;;;;4.60;3.40;;;13.60;99.90;;;;;;5055151;28;20263;-32
2022/06/01 05:43:38;;;;;;;4.50;3.00;;;13.80;99.90;;;;;;5055061;28;20181;-34
2022/06/01 05:46:04;;;;;;;4.20;3.43;;;13.80;99.90;;;;;;5040523;28;20211;-32
2022/06/01 05:48:30;;;;;;;3.30;3.00;;;14.00;99.90;;;;;;5040036;28;20201;-36
2022/06/01 05:50:57;;;;;;;3.67;3.30;;;14.00;99.90;;;;;;5034862;28;20175;-33
2022/06/01 05:53:23;;;;;;;4.00;3.20;;;14.20;99.90;;;;;;5034930;28;20242;-35
2022/06/01 05:55:50;;;;;;;4.60;3.20;;;14.30;99.90;;;;;;5048451;28;20221;-32
2022/06/01 05:58:19;;;;;;;5.57;3.47;;;14.40;99.90;;;;;;5054076;28;20574;-32
2022/06/01 06:00:47;;;;;;;4.57;3.27;;;14.50;99.90;;;;;;5054813;28;20177;-34
2022/06/01 06:03:13;;;;;;;4.23;3.20;;;14.70;99.90;;;;;;5072599;28;20193;-34
2022/06/01 06:08:24;;;;;;;3.90;3.00;;;15.00;99.90;;;;;;5064010;28;20247;-33
2022/06/01 06:10:50;;;;;;;3.30;3.00;;;15.20;99.90;;;;;;5054475;28;20186;-37
2022/06/01 06:13:16;;;;;;;4.77;2.97;;;15.30;99.90;;;;;;5054356;28;20205;-36
2022/06/01 06:15:42;;;;;;;5.33;3.00;;;15.50;99.90;;;;;;5071965;28;20223;-32
2022/06/01 06:18:12;;;;;;;6.17;3.80;;;15.50;99.90;;;;;;5054550;28;20194;-36
2022/06/01 06:20:41;;;;;;;3.37;3.07;;;15.70;99.90;;;;;;5054297;28;20170;-35
2022/06/01 06:23:07;;;;;;;3.73;3.20;;;15.90;99.90;;;;;;5072064;28;20677;-31
2022/06/01 06:25:33;;;;;;;5.07;3.10;;;16.10;99.90;;;;;;5053880;28;20232;-37
2022/06/01 06:27:59;;;;;;;3.83;2.80;;;16.20;99.90;;;;;;5053875;28;20197;-32
2022/06/01 06:30:25;;;;;;;2.90;2.70;;;16.40;99.90;;;;;;5037047;28;20181;-31
2022/06/01 06:32:51;;;;;;;3.80;2.47;;;16.50;99.90;;;;;;5054313;28;20284;-34
2022/06/01 06:35:18;;;;;;;4.03;2.60;;;16.60;99.90;;;;;;5026937;28;20169;-38
2022/06/01 06:37:44;;;;;;;3.53;3.00;;;16.70;99.90;;;;;;5062655;28;20220;-36
2022/06/01 06:40:11;;;;;;;5.07;3.07;;;16.90;99.90;;;;;;5053896;28;20181;-38
2022/06/01 06:42:37;;;;;;;3.93;2.90;;;17.10;99.90;;;;;;5053749;28;20220;-34
2022/06/01 06:45:04;;;;;;;5.63;2.73;;;17.30;99.90;;;;;;5053703;28;20181;-36
2022/06/01 06:47:34;;;;;;;5.20;2.60;;;17.50;99.90;;;;;;5053908;28;20197;-36
2022/06/01 06:50:02;;;;;;;3.23;2.93;;;17.50;99.90;;;;;;5053818;28;20220;-36
2022/06/01 06:52:28;;;;;;;3.07;2.47;;;17.70;99.90;;;;;;5036635;28;20201;-36
2022/06/01 06:54:54;;;;;;;3.90;2.40;;;17.90;99.90;;;;;;5023069;28;20185;-37
2022/06/01 06:57:20;;;;;;;5.90;2.92;;;18.10;99.90;;;;;;5040951;28;20268;-34
2022/06/01 06:59:48;;;;;;;3.08;2.78;;;18.20;99.90;;;;;;5046980;28;20284;-38
2022/06/01 07:02:15;;;;;;;5.20;2.75;;;18.30;99.90;;;;;;5046986;28;20213;-38
2022/06/01 07:04:41;;;;;;;6.95;2.60;;;18.50;99.90;;;;;;5032572;28;20181;-33
2022/06/01 07:07:07;;;;;;;5.00;2.80;;;18.60;99.90;;;;;;5051376;28;20228;-34
2022/06/01 07:09:32;;;;;;;6.57;2.90;;;18.70;99.90;;;;;;5030415;28;20186;-37
2022/06/01 07:11:58;;;;;;;5.88;2.40;;;18.80;99.90;;;;;;5016617;28;20292;-38
2022/06/01 07:14:24;;;;;;;4.53;2.50;;;19.00;99.90;;;;;;5016713;28;20245;-35
2022/06/01 07:16:50;;;;;;;6.05;2.67;;;19.10;99.90;;;;;;5033293;28;20225;-35
2022/06/01 07:19:16;;;;;;;2.60;2.40;;;19.20;99.90;;;;;;5033700;28;20190;-37
2022/06/01 07:21:42;;;;;;;4.68;2.50;;;19.20;99.90;;;;;;5018931;28;20174;-36
2022/06/01 07:24:09;;;;;;;5.75;2.67;;;19.30;99.90;;;;;;5034466;28;20193;-37
2022/06/01 07:26:38;;;;;;;3.22;2.70;;;19.50;99.90;;;;;;5052866;28;20227;-38
2022/06/01 07:29:05;;;;;;;3.03;2.55;;;19.70;99.90;;;;;;5053279;28;20200;-37
2022/06/01 07:31:31;;;;;;;7.50;2.53;;;19.90;99.90;;;;;;5053682;28;20203;-37
2022/06/01 07:33:58;;;;;;;3.95;2.58;;;20.00;99.90;;;;;;5053080;28;20193;-35
2022/06/01 07:36:25;;;;;;;2.72;2.40;;;20.20;99.90;;;;;;5063604;28;20248;-36
2022/06/01 07:44:34;;;;;;;5.32;1.83;;;20.60;99.90;;;;;;5076387;28;20191;-35
2022/06/01 07:47:00;;;;;;;2.65;1.70;;;20.60;99.90;;;;;;5074592;28;20254;-31
2022/06/01 07:49:26;;;;;;;2.58;1.80;;;20.50;99.90;;;;;;5072640;28;20208;-37
2022/06/01 07:51:56;;;;;;;1.85;1.70;;;20.60;99.90;;;;;;5056216;28;20286;-39
2022/06/01 07:54:22;;;;;;;1.85;1.50;;;20.80;99.90;;;;;;5070747;28;20184;-38
2022/06/01 07:56:48;;;;;;;2.10;1.58;;;20.80;99.90;;;;;;5036299;28;20201;-35
2022/06/01 07:59:15;;;;;;;3.15;1.60;;;20.80;99.90;;;;;;5052797;28;20173;-38
2022/06/01 08:01:41;;;;;;;2.33;1.67;;;20.90;99.90;;;;;;5052758;28;20185;-37
2022/06/01 08:04:09;;;;;;;1.92;1.42;;;21.10;99.90;;;;;;5035931;28;20181;-36
2022/06/01 08:06:36;;;;;;;2.40;1.73;;;21.10;99.70;;;;;;5070644;28;20196;-37
2022/06/01 08:09:04;;;;;;;1.40;1.30;;;21.10;99.90;;;;;;5036226;28;20200;-37
2022/06/01 08:14:15;;;;;;;1.63;1.52;;;21.30;99.90;;;;;;5069100;28;20252;-34
2022/06/01 08:16:42;;;;;;;5.13;1.88;;;21.30;99.80;;;;;;5035645;28;20212;-38
2022/06/01 08:19:09;;;;;;;2.53;1.63;;;21.40;99.90;;;;;;5052583;28;20189;-38
2022/06/01 08:21:36;;;;;;;3.42;1.52;;;21.40;98.30;;;;;;5073413;28;20177;-36
2022/06/01 08:24:03;;;;;;;2.10;1.50;;;21.50;98.60;;;;;;5074327;28;20173;-37
2022/06/01 08:26:29;;;;;;;2.78;1.50;;;21.60;97.80;;;;;;5056361;28;20235;-40
2022/06/01 08:28:56;;;;;;;2.60;1.50;;;21.70;97.60;;;;;;5074249;28;20185;-40
2022/06/01 08:31:26;;;;;;;2.92;1.73;;;21.90;96.30;;;;;;5039760;28;20177;-37
2022/06/01 08:34:04;;;;;;;2.05;1.33;;;22.10;96.40;;;;;;5074170;28;20170;-40
2022/06/01 08:36:30;;;;;;;1.75;1.55;;;22.20;97.30;;;;;;5039884;28;20197;-37
2022/06/01 08:38:56;;;;;;;2.58;1.42;;;22.20;97.30;;;;;;5074106;28;20181;-39
2022/06/01 08:41:35;;;;;;;2.35;1.60;;;22.10;96.90;;;;;;5039365;28;20244;-39
2022/06/01 08:44:25;;;;;;;2.17;1.65;;;22.10;96.80;;;;;;5039279;28;20263;-37
2022/06/01 08:46:58;;;;;;;1.85;1.42;;;22.20;95.70;;;;;;5055560;28;20197;-37
2022/06/01 08:49:28;;;;;;;2.25;1.30;;;22.40;95.10;;;;;;5056069;28;20189;-39
2022/06/01 08:51:54;;;;;;;3.30;1.27;;;22.50;95.20;;;;;;5055806;28;20270;-37
2022/06/01 08:54:22;;;;;;;2.55;1.38;;;22.60;95.00;;;;;;5055674;28;20169;-38
2022/06/01 08:56:50;;;;;;;1.88;1.30;;;22.70;94.60;;;;;;5073996;28;20268;-38
2022/06/01 08:59:28;;;;;;;2.42;1.48;;;22.70;93.10;;;;;;5039440;28;20238;-35
2022/06/01 09:02:22;;;;;;;3.38;1.63;;;22.70;92.60;;;;;;5039208;28;20192;-39
2022/06/01 09:05:13;;;;;;;3.05;1.20;;;23.00;92.60;;;;;;5055481;28;20181;-38
2022/06/01 09:07:51;;;;;;;1.40;1.20;;;23.10;92.10;;;;;;5072429;28;20228;-37
2022/06/01 09:10:35;;;;;;;2.35;1.10;;;23.20;91.00;;;;;;5055782;28;20727;-38
2022/06/01 09:13:09;;;;;;;1.20;1.10;;;22.80;90.20;;;;;;5039047;28;20322;-38
2022/06/01 09:15:55;;;;;;;1.63;1.20;;;22.70;91.60;;;;;;5073394;28;20173;-38
2022/06/01 09:18:28;;;;;;;1.30;1.20;;;22.90;91.00;;;;;;5039126;28;20208;-35
2022/06/01 09:23:41;;;;;;;3.22;1.45;;;22.60;89.90;;;;;;5072131;28;20173;-35
2022/06/01 09:26:07;;;;;;;2.65;1.25;;;22.50;91.30;;;;;;5054974;28;20189;-39
2022/06/01 09:28:41;;;;;;;1.38;1.23;;;22.50;91.30;;;;;;5055378;28;20173;-36
2022/06/01 09:31:33;;;;;;;1.52;1.10;;;22.50;91.50;;;;;;5055430;28;20183;-37
2022/06/01 09:34:38;;;;;;;1.40;1.25;;;22.40;91.30;;;;;;5054446;28;20556;-39
2022/06/01 09:37:23;;;;;;;1.80;1.20;;;22.60;91.00;;;;;;5055185;28;20211;-37
2022/06/01 09:39:55;;;;;;;1.27;0.95;;;22.80;90.70;;;;;;5038285;28;20241;-40
2022/06/01 09:42:41;;;;;;;1.67;1.40;;;22.80;91.40;;;;;;5055262;28;20172;-39
2022/06/01 09:45:25;;;;;;;1.85;1.20;;;23.00;91.70;;;;;;5073180;28;20188;-37
2022/06/01 09:47:53;;;;;;;1.35;1.10;;;23.10;90.30;;;;;;5055032;28;20252;-39
2022/06/01 09:50:27;;;;;;;1.73;1.30;;;23.20;91.10;;;;;;5054765;28;20182;-38
2022/06/01 09:53:21;;;;;;;1.90;1.08;;;23.50;90.20;;;;;;5038258;28;20287;-39
2022/06/01 09:55:58;;;;;;;1.45;1.17;;;23.50;90.30;;;;;;5051520;28;20204;-40
2022/06/01 10:07:29;;;;;;;2.20;1.45;;;23.10;90.90;;;;;;5069512;28;20193;-37
2022/06/01 10:09:58;;;;;;;1.58;1.35;;;23.10;90.10;;;;;;5072608;28;20223;-38
2022/06/01 10:12:47;;;;;;;1.40;1.30;;;22.80;89.40;;;;;;5045128;28;20246;-39
2022/06/01 10:15:35;;;;;;;2.33;1.30;;;22.80;90.00;;;;;;5053923;28;20184;-37
2022/06/01 10:18:22;;;;;;;1.52;1.25;;;22.90;90.20;;;;;;5038563;28;20197;-37
2022/06/01 10:20:55;;;;;;;1.23;1.13;;;22.80;90.50;;;;;;5053319;28;20914;-39
2022/06/01 10:23:24;;;;;;;3.05;1.50;;;22.90;91.30;;;;;;5033978;28;20235;-39
2022/06/01 10:26:03;;;;;;;1.60;1.20;;;23.00;91.00;;;;;;5064957;28;20209;-39
2022/06/01 10:28:40;;;;;;;3.28;1.48;;;23.00;89.20;;;;;;5054945;28;20196;-37
2022/06/01 10:31:18;;;;;;;1.92;1.20;;;22.90;90.00;;;;;;5049383;28;20260;-39
2022/06/01 10:33:49;;;;;;;2.65;1.50;;;22.80;89.90;;;;;;5053829;28;20216;-39
2022/06/01 10:36:46;;;;;;;1.88;1.13;;;23.00;90.70;;;;;;5053919;28;20173;-36
2022/06/01 10:39:38;;;;;;;2.25;1.20;;;23.00;90.10;;;;;;5023484;28;20219;-38
2022/06/01 10:42:18;;;;;;;2.08;1.25;;;23.20;90.00;;;;;;5054005;28;20260;-40
2022/06/01 10:45:08;;;;;;;1.98;1.20;;;23.20;88.30;;;;;;5054396;28;20185;-39
2022/06/01 10:48:12;;;;;;;2.17;1.33;;;23.50;87.40;;;;;;5053901;28;20268;-38
2022/06/01 10:51:13;;;;;;;1.25;1.15;;;23.50;88.30;;;;;;5036654;28;20185;-38
2022/06/01 10:53:59;;;;;;;3.30;1.05;;;23.50;88.50;;;;;;5054076;28;20216;-39
2022/06/01 10:56:26;;;;;;;2.15;1.80;;;23.40;87.90;;;;;;5034682;28;20272;-37
2022/06/01 10:58:56;;;;;;;1.38;1.27;;;23.30;87.20;;;;;;5044673;28;20193;-35
2022/06/01 11:01:41;;;;;;;1.15;1.05;;;23.50;85.80;;;;;;5033581;28;20178;-37
2022/06/01 11:04:40;;;;;;;2.03;1.20;;;23.60;83.80;;;;;;5069261;28;20177;-35
2022/06/01 11:07:34;;;;;;;2.13;1.15;;;23.70;83.30;;;;;;5036588;28;20207;-39
2022/06/01 11:10:17;;;;;;;2.85;1.20;;;23.60;84.40;;;;;;5070761;28;20212;-37
2022/06/01 11:13:07;;;;;;;1.90;1.02;;;23.50;82.00;;;;;;5053415;28;20197;-40
2022/06/01 11:15:48;;;;;;;1.40;1.08;;;23.60;83.30;;;;;;5070841;28;20166;-38
2022/06/01 11:18:40;;;;;;;1.48;1.30;;;23.30;81.80;;;;;;5049857;28;20201;-38
2022/06/01 11:21:24;;;;;;;1.35;1.20;;;23.40;84.00;;;;;;5066734;28;20299;-38
2022/06/01 11:24:24;;;;;;;3.67;1.40;;;23.50;81.90;;;;;;5043056;28;20598;-40
2022/06/01 11:27:24;;;;;;;2.70;2.45;;;23.60;82.70;;;;;;5033415;28;20194;-38
2022/06/01 11:29:57;;;;;;;4.20;2.13;;;24.00;80.30;;;;;;5070249;28;20196;-35
2022/06/01 11:32:39;;;;;;;4.68;3.13;;;24.30;80.80;;;;;;5050613;28;20262;-37
2022/06/01 11:35:35;;;;;;;24.55;16.95;;;24.40;80.10;;;;;;5044657;28;20192;-40
2022/06/01 11:38:08;;;;;;;5.63;3.58;;;24.30;79.40;;;;;;5104909;22;20239;-32
2022/06/01 11:40:35;;;;;;;1.73;1.30;;;24.20;79.50;;;;;;5090297;28;20172;-32
2022/06/01 11:43:08;;;;;;;1.55;1.20;;;24.30;79.20;;;;;;5071745;28;20192;-32
2022/06/01 11:45:42;;;;;;;2.05;1.30;;;23.90;80.00;;;;;;5073145;28;20185;-32
2022/06/01 11:48:12;;;;;;;2.65;1.30;;;23.70;81.80;;;;;;5057950;28;20189;-32
2022/06/01 11:51:15;;;;;;;2.65;1.63;;;23.60;81.80;;;;;;5058049;28;20173;-33
2022/06/01 11:53:58;;;;;;;1.80;1.70;;;23.60;85.30;;;;;;5059766;28;20211;-32
2022/06/01 11:56:28;;;;;;;1.58;1.48;;;23.50;81.70;;;;;;5059455;28;20231;-33
2022/06/01 11:59:05;;;;;;;2.08;1.60;;;23.40;83.90;;;;;;5057117;28;20262;-33
2022/06/01 12:01:35;;;;;;;2.50;1.40;;;23.40;84.20;;;;;;5043144;28;20188;-32
2022/06/01 12:04:18;;;;;;;3.10;1.42;;;23.50;83.50;;;;;;5045732;28;20177;-32
2022/06/01 12:07:05;;;;;;;2.35;1.20;;;23.40;83.60;;;;;;5049742;28;20220;-32
2022/06/01 12:09:38;;;;;;;1.42;1.33;;;23.00;82.20;;;;;;5043936;28;20268;-33
2022/06/01 12:12:04;;;;;;;1.52;1.25;;;23.00;83.80;;;;;;5045813;28;20197;-33
2022/06/01 12:14:41;;;;;;;2.35;1.35;;;23.30;83.60;;;;;;5025802;28;20173;-33
2022/06/01 12:17:23;;;;;;;2.78;1.73;;;23.50;84.40;;;;;;5027587;28;20203;-32
2022/06/01 12:20:10;;;;;;;7.03;1.52;;;23.70;82.90;;;;;;5067547;28;20189;-32
2022/06/01 12:28:54;;;;;;;2.88;1.45;;;23.90;84.90;;;;;;5053717;28;20201;-34
2022/06/01 12:31:28;;;;;;;2.53;1.27;;;23.90;83.90;;;;;;5050908;28;20630;-32
2022/06/01 12:34:14;;;;;;;2.13;1.52;;;23.90;83.70;;;;;;5070618;28;20202;-32
2022/06/01 12:36:50;;;;;;;2.20;1.40;;;23.80;83.60;;;;;;5088047;28;20165;-32
2022/06/01 12:39:35;;;;;;;2.13;1.80;;;23.90;87.60;;;;;;5017087;28;20208;-34
2022/06/01 12:42:27;;;;;;;2.35;1.83;;;24.00;85.30;;;;;;5033788;28;20193;-32
2022/06/01 12:44:55;;;;;;;3.30;1.40;;;24.10;84.80;;;;;;5051696;28;20186;-32
2022/06/01 12:47:42;;;;;;;2.28;1.60;;;24.30;84.00;;;;;;5041611;28;20220;-32
2022/06/01 12:50:17;;;;;;;3.20;1.52;;;24.30;83.50;;;;;;5037853;28;20186;-34
2022/06/01 12:52:46;;;;;;;1.77;1.67;;;24.30;83.50;;;;;;5056090;28;20665;-32
2022/06/01 12:55:20;;;;;;;4.43;2.10;;;24.50;84.50;;;;;;5035412;28;20267;-32
2022/06/01 12:57:54;;;;;;;4.72;2.80;;;24.50;83.30;;;;;;5022974;28;20193;-31
2022/06/01 13:00:26;;;;;;;3.85;2.30;;;24.40;84.60;;;;;;5058418;28;20178;-40
2022/06/01 13:02:52;;;;;;;2.08;1.40;;;24.20;84.20;;;;;;5045542;28;20169;-40
2022/06/01 13:05:35;;;;;;;1.90;1.50;;;24.10;86.40;;;;;;5035009;28;20189;-38
2022/06/01 13:08:04;;;;;;;1.92;1.73;;;24.20;88.50;;;;;;5077257;28;20258;-37
2022/06/01 13:10:34;;;;;;;2.15;1.50;;;24.50;87.40;;;;;;5074460;28;20187;-34
2022/06/01 13:13:14;;;;;;;1.73;1.60;;;24.50;87.30;;;;;;5070150;28;20669;-36
2022/06/01 13:15:42;;;;;;;2.35;1.58;;;24.50;87.10;;;;;;5066043;28;20272;-36
2022/06/01 13:18:18;;;;;;;2.10;1.67;;;24.40;85.40;;;;;;5041993;28;20208;-39
2022/06/01 13:20:59;;;;;;;2.90;1.55;;;23.90;85.50;;;;;;5038905;28;20506;-36
2022/06/01 13:23:48;;;;;;;2.25;2.00;;;23.70;87.40;;;;;;5065441;28;20184;-37
2022/06/01 13:26:32;;;;;;;3.17;1.67;;;23.90;89.10;;;;;;5049702;28;20650;-38
2022/06/01 13:29:18;;;;;;;2.47;1.50;;;24.40;89.30;;;;;;5045488;28;20227;-40
2022/06/01 13:31:49;;;;;;;4.03;1.88;;;24.80;87.60;;;;;;5056876;28;20181;-39
2022/06/01 13:34:28;;;;;;;4.55;1.60;;;24.90;86.80;;;;;;5037388;28;20236;-36
2022/06/01 13:37:03;;;;;;;1.92;1.52;;;24.50;86.50;;;;;;5042346;28;20172;-37
2022/06/01 13:39:31;;;;;;;1.92;1.60;;;24.50;86.20;;;;;;5056001;28;20211;-39
2022/06/01 13:42:00;;;;;;;1.95;1.70;;;24.80;86.90;;;;;;5056630;28;20205;-41
2022/06/01 13:44:48;;;;;;;2.85;1.52;;;25.10;87.30;;;;;;5048750;28;20202;-38
2022/06/01 13:47:21;;;;;;;3.70;1.80;;;25.10;86.00;;;;;;5038800;28;20288;-41
2022/06/01 13:49:50;;;;;;;3.50;1.80;;;25.50;87.00;;;;;;5043636;28;20217;-43